Gorham, Kansas
Current Conditions -  °F | °C
As of 8:53 PM on Tuesday 21 Oct 2014 (Local Time) from KRSL Reporting Station
Clear Clear  
Wind Chill: 66°   Ceiling: Unl
Heat Index: 66°   Visibility: 10mi
Dew Point: 57°   Wind: 13mph
Humidity: 73%   Direction: 160°SSE
Pressure: 29.98"   Gusts: NA
Location:  38.88°N, 99.02°W
Report Text: KRSL 220153Z AUTO 16011KT 10SM CLR 19/14 A2998 RMK AO2 SLP146 T01890139
Loading
Personal Weather Stations






























Interactive Weather Map
Tropical Storm Tracking
New forecast layout! Learn more

10-Day Weather Forecast

Advertisements
Track Severe Weather on mobile